Time;durP1;ratioP1;P1;durP2;ratioP2;P2;SDS_P1;SDS_P2;PMS_P1;PMS_P2;Temp;Humidity;BMP_temperature;BMP_pressure;BME280_temperature;BME280_humidity;BME280_pressure;Samples;Min_cycle;Max_cycle;Signal;HPM_P1;HPM_P2
2023/06/20 02:01:47;;;;;;;11.98;8.25;;;;;;;;;;4582051;27;19953;-80
2023/06/20 02:04:16;;;;;;;9.07;7.78;;;;;;;;;;4334077;33;20095;-81
2023/06/20 02:06:42;;;;;;;9.68;7.07;;;;;;;;;;4325011;33;20040;-80
2023/06/20 02:09:09;;;;;;;9.93;7.62;;;;;;;;;;4325380;33;20052;-80
2023/06/20 02:11:36;;;;;;;11.05;8.13;;;;;;;;;;4294648;33;20052;-80
2023/06/20 02:14:02;;;;;;;10.93;8.52;;;;;;;;;;4294378;33;20067;-80
2023/06/20 02:16:28;;;;;;;11.52;7.57;;;;;;;;;;4279067;33;20468;-80
2023/06/20 02:18:55;;;;;;;11.90;8.05;;;;;;;;;;4253759;33;20409;-80
2023/06/20 02:21:23;;;;;;;14.87;9.23;;;;;;;;;;4253519;33;20033;-80
2023/06/20 02:23:50;;;;;;;10.82;8.35;;;;;;;;;;4255648;33;20057;-81
2023/06/20 02:26:17;;;;;;;14.07;8.88;;;;;;;;;;4258116;33;20113;-78
2023/06/20 02:28:48;;;;;;;11.00;9.15;;;;;;;;;;4253797;33;20056;-79
2023/06/20 02:31:15;;;;;;;13.80;7.68;;;;;;;;;;4236215;33;20047;-80
2023/06/20 02:33:43;;;;;;;10.07;8.93;;;;;;;;;;4231014;33;20094;-79
2023/06/20 02:36:09;;;;;;;9.43;8.50;;;;;;;;;;4232854;33;20072;-80
2023/06/20 02:38:36;;;;;;;14.52;8.70;;;;;;;;;;4232420;33;20055;-80
2023/06/20 02:41:03;;;;;;;9.82;8.10;;;;;;;;;;4245337;33;20047;-80
2023/06/20 02:43:29;;;;;;;9.40;7.87;;;;;;;;;;4234008;33;20046;-80
2023/06/20 02:46:19;;;;;;;19.40;9.00;;;;;;;;;;4235956;33;20034;-81
2023/06/20 02:49:07;;;;;;;10.23;8.77;;;;;;;;;;4230745;33;20083;-79
2023/06/20 02:51:37;;;;;;;12.98;8.43;;;;;;;;;;4251562;33;20027;-78
2023/06/20 02:54:12;;;;;;;11.27;8.95;;;;;;;;;;4257692;33;20437;-79
2023/06/20 02:56:38;;;;;;;11.40;8.65;;;;;;;;;;4248408;33;20577;-79
2023/06/20 02:59:07;;;;;;;11.55;8.68;;;;;;;;;;4250854;33;20137;-80
2023/06/20 03:01:33;;;;;;;18.05;9.73;;;;;;;;;;4247382;33;20043;-80
2023/06/20 03:04:02;;;;;;;14.30;9.05;;;;;;;;;;4237043;33;20401;-80
2023/06/20 03:06:29;;;;;;;9.60;8.52;;;;;;;;;;4236478;33;20034;-80
2023/06/20 03:08:59;;;;;;;10.02;8.48;;;;;;;;;;4233915;33;20041;-80
2023/06/20 03:11:25;;;;;;;15.65;8.35;;;;;;;;;;4233725;33;20442;-80
2023/06/20 03:13:52;;;;;;;12.95;8.60;;;;;;;;;;4238310;33;20441;-80
2023/06/20 03:16:18;;;;;;;15.27;8.98;;;;;;;;;;4250130;33;20081;-79
2023/06/20 03:18:47;;;;;;;10.52;9.43;;;;;;;;;;4251084;33;20053;-79
2023/06/20 03:21:13;;;;;;;12.40;9.15;;;;;;;;;;4263072;33;20075;-79
2023/06/20 03:23:40;;;;;;;11.25;9.02;;;;;;;;;;4290247;33;20055;-80
2023/06/20 03:26:06;;;;;;;15.80;9.55;;;;;;;;;;4253284;33;20080;-80
2023/06/20 03:28:33;;;;;;;12.95;9.25;;;;;;;;;;4277860;33;20351;-79
2023/06/20 03:30:59;;;;;;;13.75;11.45;;;;;;;;;;4261072;33;20053;-79
2023/06/20 03:33:26;;;;;;;13.18;10.32;;;;;;;;;;4264454;33;20196;-79
2023/06/20 03:35:52;;;;;;;18.55;8.82;;;;;;;;;;4264705;33;20432;-79
2023/06/20 03:38:19;;;;;;;23.02;11.07;;;;;;;;;;4264016;33;20067;-79
2023/06/20 03:40:45;;;;;;;13.30;10.82;;;;;;;;;;4264378;33;20586;-79
2023/06/20 03:43:12;;;;;;;14.23;10.00;;;;;;;;;;4262083;33;20099;-80
2023/06/20 03:45:38;;;;;;;14.07;11.73;;;;;;;;;;4239143;33;20125;-80
2023/06/20 03:48:04;;;;;;;18.33;12.07;;;;;;;;;;4236105;33;20055;-80
2023/06/20 03:50:31;;;;;;;11.68;10.13;;;;;;;;;;4235776;33;20388;-80
2023/06/20 03:52:58;;;;;;;18.77;12.23;;;;;;;;;;4235329;33;20090;-80
2023/06/20 03:55:24;;;;;;;16.30;11.75;;;;;;;;;;4234227;33;20449;-80
2023/06/20 03:57:50;;;;;;;13.38;10.90;;;;;;;;;;4230807;33;20066;-80
2023/06/20 04:00:17;;;;;;;19.75;10.85;;;;;;;;;;4259635;33;20063;-80
2023/06/20 04:02:45;;;;;;;13.88;10.80;;;;;;;;;;4263704;33;20053;-81
2023/06/20 04:05:12;;;;;;;16.45;11.88;;;;;;;;;;4263273;33;20060;-80
2023/06/20 04:07:42;;;;;;;13.18;10.30;;;;;;;;;;4262346;33;20054;-80
2023/06/20 04:10:09;;;;;;;20.42;12.18;;;;;;;;;;4263368;33;20099;-80
2023/06/20 04:12:36;;;;;;;17.27;11.52;;;;;;;;;;4264669;33;20425;-80
2023/06/20 04:15:02;;;;;;;19.98;11.50;;;;;;;;;;4264601;33;20042;-80
2023/06/20 04:17:28;;;;;;;16.90;10.35;;;;;;;;;;4275405;33;20435;-80
2023/06/20 04:19:55;;;;;;;15.13;12.02;;;;;;;;;;4292418;33;20029;-80
2023/06/20 04:22:26;;;;;;;12.18;9.98;;;;;;;;;;4299818;33;20053;-80
2023/06/20 04:24:53;;;;;;;20.17;11.70;;;;;;;;;;4278206;33;20029;-81
2023/06/20 04:27:19;;;;;;;16.62;10.60;;;;;;;;;;4278534;33;20068;-80
2023/06/20 04:29:47;;;;;;;16.73;11.35;;;;;;;;;;4276712;33;20063;-80
2023/06/20 04:32:14;;;;;;;22.40;12.18;;;;;;;;;;4292732;33;20115;-80
2023/06/20 04:34:40;;;;;;;20.80;11.12;;;;;;;;;;4293121;33;20038;-81
2023/06/20 04:37:06;;;;;;;15.48;10.80;;;;;;;;;;4279624;33;20505;-80
2023/06/20 04:39:33;;;;;;;17.37;11.12;;;;;;;;;;4275134;33;20053;-80
2023/06/20 04:41:59;;;;;;;22.95;10.82;;;;;;;;;;4290066;33;20053;-80
2023/06/20 04:44:25;;;;;;;15.07;10.18;;;;;;;;;;4291325;33;20041;-81
2023/06/20 04:46:55;;;;;;;14.35;9.50;;;;;;;;;;4300064;33;20509;-79
2023/06/20 04:49:21;;;;;;;11.77;10.23;;;;;;;;;;4306878;33;20112;-79
2023/06/20 04:51:48;;;;;;;16.87;10.75;;;;;;;;;;4310812;33;20091;-80
2023/06/20 04:54:14;;;;;;;15.57;9.57;;;;;;;;;;4319122;33;20063;-81
2023/06/20 04:56:40;;;;;;;19.05;10.15;;;;;;;;;;4320046;33;20058;-82
2023/06/20 04:59:08;;;;;;;14.23;9.95;;;;;;;;;;4278310;33;20233;-82
2023/06/20 05:01:34;;;;;;;13.82;11.18;;;;;;;;;;4269167;33;20045;-81
2023/06/20 05:04:03;;;;;;;22.23;10.93;;;;;;;;;;4270720;33;20046;-82
2023/06/20 05:06:30;;;;;;;11.15;9.55;;;;;;;;;;4279162;33;20049;-81
2023/06/20 05:08:56;;;;;;;16.10;9.57;;;;;;;;;;4280577;33;20899;-81
2023/06/20 05:11:22;;;;;;;13.13;11.38;;;;;;;;;;4244258;33;20046;-82
2023/06/20 05:16:22;;;;;;;23.10;10.88;;;;;;;;;;4252552;33;20080;-80
2023/06/20 05:18:48;;;;;;;19.15;10.13;;;;;;;;;;4252071;33;20076;-79
2023/06/20 05:21:14;;;;;;;21.08;9.98;;;;;;;;;;4246646;33;20054;-79
2023/06/20 05:23:41;;;;;;;14.48;9.93;;;;;;;;;;4246063;33;20037;-80
2023/06/20 05:26:07;;;;;;;18.23;10.77;;;;;;;;;;4236923;33;20194;-80
2023/06/20 05:28:33;;;;;;;17.10;10.18;;;;;;;;;;4237734;33;20064;-78
2023/06/20 05:31:00;;;;;;;10.52;8.35;;;;;;;;;;4258518;33;20075;-78
2023/06/20 05:33:26;;;;;;;24.48;11.30;;;;;;;;;;4265831;33;20050;-78
2023/06/20 05:35:52;;;;;;;13.48;9.93;;;;;;;;;;4262447;33;20050;-79
2023/06/20 05:38:18;;;;;;;21.77;8.95;;;;;;;;;;4262598;33;20102;-80
2023/06/20 05:40:44;;;;;;;13.95;9.00;;;;;;;;;;4265664;33;20079;-80
2023/06/20 05:43:10;;;;;;;14.23;9.30;;;;;;;;;;4295689;33;20049;-79
2023/06/20 05:45:37;;;;;;;13.27;9.43;;;;;;;;;;4301343;33;20065;-80
2023/06/20 05:48:03;;;;;;;12.48;8.25;;;;;;;;;;4298985;33;20501;-79
2023/06/20 05:50:32;;;;;;;14.65;7.93;;;;;;;;;;4300110;33;20074;-76
2023/06/20 05:53:00;;;;;;;10.88;8.13;;;;;;;;;;4302315;33;20111;-78
2023/06/20 05:55:26;;;;;;;16.85;8.32;;;;;;;;;;4305180;33;20782;-78
2023/06/20 05:57:52;;;;;;;19.05;10.98;;;;;;;;;;4317807;33;20139;-77
2023/06/20 06:00:18;;;;;;;18.73;11.55;;;;;;;;;;4322961;33;20503;-77
2023/06/20 06:02:45;;;;;;;21.55;10.93;;;;;;;;;;4307487;33;20049;-76
2023/06/20 06:05:12;;;;;;;23.77;9.23;;;;;;;;;;4284911;33;20064;-78
2023/06/20 06:07:38;;;;;;;16.77;8.90;;;;;;;;;;4283091;33;20572;-80
2023/06/20 06:10:07;;;;;;;13.55;8.60;;;;;;;;;;4280648;33;20547;-76
2023/06/20 06:12:34;;;;;;;15.07;8.43;;;;;;;;;;4278819;33;20116;-74
2023/06/20 06:15:00;;;;;;;18.70;8.32;;;;;;;;;;4278226;33;20063;-76
2023/06/20 06:17:26;;;;;;;15.90;7.75;;;;;;;;;;4277067;33;20125;-76
2023/06/20 06:19:53;;;;;;;22.30;8.40;;;;;;;;;;4265960;33;20045;-78
2023/06/20 06:22:20;;;;;;;25.85;10.07;;;;;;;;;;4263409;33;20135;-79
2023/06/20 06:24:46;;;;;;;25.80;8.93;;;;;;;;;;4276005;33;20053;-79
2023/06/20 06:27:12;;;;;;;23.25;9.40;;;;;;;;;;4279481;33;20049;-79
2023/06/20 06:29:41;;;;;;;20.35;9.77;;;;;;;;;;4279690;33;20084;-78
2023/06/20 06:32:07;;;;;;;20.50;10.32;;;;;;;;;;4256058;33;20061;-79
2023/06/20 06:34:34;;;;;;;21.62;9.90;;;;;;;;;;4262665;33;20117;-78
2023/06/20 06:37:00;;;;;;;23.65;11.02;;;;;;;;;;4262041;33;20349;-80
2023/06/20 06:39:26;;;;;;;17.12;10.05;;;;;;;;;;4269290;33;20045;-81
2023/06/20 06:41:53;;;;;;;26.95;11.57;;;;;;;;;;4265748;33;20030;-82
2023/06/20 06:44:22;;;;;;;19.08;9.88;;;;;;;;;;4229039;33;20276;-78
2023/06/20 06:46:48;;;;;;;23.30;9.35;;;;;;;;;;4229506;33;20907;-77
2023/06/20 06:49:14;;;;;;;19.60;10.35;;;;;;;;;;4228563;33;20464;-76
2023/06/20 06:51:40;;;;;;;13.52;8.65;;;;;;;;;;4244014;33;20076;-77
2023/06/20 06:54:07;;;;;;;20.77;9.98;;;;;;;;;;4242683;33;20066;-78
2023/06/20 06:56:33;;;;;;;18.15;10.68;;;;;;;;;;4237156;33;20038;-79
2023/06/20 06:59:01;;;;;;;19.45;9.35;;;;;;;;;;4238688;33;20231;-77
2023/06/20 07:01:30;;;;;;;16.98;8.65;;;;;;;;;;4243712;33;20042;-78
2023/06/20 07:03:58;;;;;;;21.40;8.02;;;;;;;;;;4236780;33;20449;-79
2023/06/20 07:06:24;;;;;;;15.25;8.45;;;;;;;;;;4232729;33;20034;-79
2023/06/20 07:08:52;;;;;;;29.77;8.52;;;;;;;;;;4235350;33;20072;-80
2023/06/20 07:11:18;;;;;;;22.70;13.73;;;;;;;;;;4235875;33;20080;-77
2023/06/20 07:13:44;;;;;;;20.30;8.82;;;;;;;;;;4241343;33;20056;-76
2023/06/20 07:16:10;;;;;;;12.75;8.45;;;;;;;;;;4270302;33;20065;-77
2023/06/20 07:18:37;;;;;;;19.95;10.90;;;;;;;;;;4267714;33;20057;-76
2023/06/20 07:21:03;;;;;;;14.60;10.63;;;;;;;;;;4262324;33;20207;-84
2023/06/20 07:23:30;;;;;;;13.40;6.18;;;;;;;;;;4264842;33;20079;-87
2023/06/20 07:25:56;;;;;;;9.02;5.87;;;;;;;;;;4262995;33;20384;-84
2023/06/20 07:28:25;;;;;;;10.07;6.22;;;;;;;;;;4263782;33;20119;-79
2023/06/20 07:30:51;;;;;;;7.65;5.62;;;;;;;;;;4259837;33;20218;-83
2023/06/20 07:33:17;;;;;;;29.25;16.48;;;;;;;;;;4249472;33;20047;-82
2023/06/20 07:35:43;;;;;;;14.75;11.63;;;;;;;;;;4238928;33;20070;-81
2023/06/20 07:38:09;;;;;;;8.10;7.12;;;;;;;;;;4246727;33;20041;-80
2023/06/20 07:40:35;;;;;;;12.23;6.68;;;;;;;;;;4248614;33;20393;-81
2023/06/20 07:43:02;;;;;;;21.23;13.60;;;;;;;;;;4261552;33;20295;-82
2023/06/20 07:45:36;;;;;;;6.37;5.35;;;;;;;;;;4263058;33;20154;-83
2023/06/20 07:48:03;;;;;;;20.62;15.85;;;;;;;;;;4264343;33;20116;-82
2023/06/20 07:50:30;;;;;;;14.60;10.48;;;;;;;;;;4263457;33;20517;-79
2023/06/20 07:52:56;;;;;;;26.83;20.75;;;;;;;;;;4275787;33;20073;-81
2023/06/20 07:55:22;;;;;;;10.13;7.07;;;;;;;;;;4279064;33;20041;-79
2023/06/20 07:57:48;;;;;;;6.00;5.32;;;;;;;;;;4278843;33;20096;-81
2023/06/20 08:00:14;;;;;;;8.77;6.12;;;;;;;;;;4278885;33;20064;-80
2023/06/20 08:02:41;;;;;;;8.45;7.32;;;;;;;;;;4281281;33;20633;-80
2023/06/20 08:05:11;;;;;;;8.18;5.43;;;;;;;;;;4308138;33;20123;-81
2023/06/20 08:07:37;;;;;;;10.00;5.43;;;;;;;;;;4307783;33;20450;-81
2023/06/20 08:10:05;;;;;;;5.93;5.32;;;;;;;;;;4306838;33;20067;-81
2023/06/20 08:12:31;;;;;;;8.43;5.32;;;;;;;;;;4307690;33;20467;-80
2023/06/20 08:14:57;;;;;;;6.03;5.10;;;;;;;;;;4306356;33;20179;-80
2023/06/20 08:17:24;;;;;;;9.95;5.20;;;;;;;;;;4308004;33;20478;-80
2023/06/20 08:19:49;;;;;;;12.00;4.60;;;;;;;;;;4278995;33;20075;-80
2023/06/20 08:22:16;;;;;;;11.43;4.72;;;;;;;;;;4279188;33;20065;-80
2023/06/20 08:24:42;;;;;;;6.20;5.18;;;;;;;;;;4276961;33;20532;-80
2023/06/20 08:27:08;;;;;;;7.43;5.00;;;;;;;;;;4267665;33;20439;-80
2023/06/20 08:29:34;;;;;;;8.35;5.80;;;;;;;;;;4266336;33;20067;-81
2023/06/20 08:32:01;;;;;;;6.60;5.70;;;;;;;;;;4278381;33;20059;-81
2023/06/20 08:34:27;;;;;;;6.28;4.45;;;;;;;;;;4249571;33;20042;-81
2023/06/20 08:36:53;;;;;;;6.37;5.20;;;;;;;;;;4223051;33;20440;-81
2023/06/20 08:39:20;;;;;;;7.20;4.57;;;;;;;;;;4224678;33;20325;-81
2023/06/20 08:41:48;;;;;;;6.18;5.00;;;;;;;;;;4225385;33;20253;-81
2023/06/20 08:44:14;;;;;;;6.07;4.60;;;;;;;;;;4225155;33;20476;-81
2023/06/20 08:46:41;;;;;;;6.75;4.85;;;;;;;;;;4221928;33;20069;-80
2023/06/20 08:49:07;;;;;;;4.93;4.10;;;;;;;;;;4226686;34;20187;-84
2023/06/20 08:51:36;;;;;;;8.02;4.57;;;;;;;;;;4259837;33;20057;-80
2023/06/20 08:54:04;;;;;;;12.15;8.45;;;;;;;;;;4267662;33;20137;-80
2023/06/20 08:56:30;;;;;;;11.60;8.40;;;;;;;;;;4266181;33;20046;-80
2023/06/20 08:58:56;;;;;;;8.13;7.30;;;;;;;;;;4266817;33;20042;-78
2023/06/20 09:01:23;;;;;;;12.88;4.87;;;;;;;;;;4265996;33;20057;-79
2023/06/20 09:03:52;;;;;;;6.40;4.47;;;;;;;;;;4266347;33;20485;-83
2023/06/20 09:06:31;;;;;;;4.43;4.12;;;;;;;;;;4265805;33;20086;-80
2023/06/20 09:08:57;;;;;;;4.78;4.07;;;;;;;;;;4253043;33;20051;-80
2023/06/20 09:11:24;;;;;;;5.28;4.20;;;;;;;;;;4263865;33;20083;-86
2023/06/20 09:13:50;;;;;;;5.07;4.28;;;;;;;;;;4292245;33;20061;-81
2023/06/20 09:16:16;;;;;;;10.43;4.97;;;;;;;;;;4292768;33;20061;-77
2023/06/20 09:18:42;;;;;;;6.78;4.20;;;;;;;;;;4289539;33;20057;-79
2023/06/20 09:21:17;;;;;;;4.40;4.00;;;;;;;;;;4257960;33;20054;-79
2023/06/20 09:23:43;;;;;;;6.12;4.53;;;;;;;;;;4282896;33;20074;-79
2023/06/20 09:26:14;;;;;;;5.32;4.75;;;;;;;;;;4290669;33;20057;-80
2023/06/20 09:28:40;;;;;;;8.05;4.85;;;;;;;;;;4293636;33;20075;-79
2023/06/20 09:31:07;;;;;;;6.82;5.05;;;;;;;;;;4294020;33;20182;-78
2023/06/20 09:33:39;;;;;;;5.37;4.97;;;;;;;;;;4293786;33;20360;-79
2023/06/20 09:36:11;;;;;;;5.90;4.75;;;;;;;;;;4294279;33;20083;-79
2023/06/20 09:38:40;;;;;;;8.02;5.18;;;;;;;;;;4293814;33;20040;-79
2023/06/20 09:41:07;;;;;;;9.63;5.75;;;;;;;;;;4292371;33;20444;-79
2023/06/20 09:43:33;;;;;;;5.60;5.03;;;;;;;;;;4291811;33;20104;-79
2023/06/20 09:45:59;;;;;;;7.75;4.95;;;;;;;;;;4303692;33;20159;-80
2023/06/20 09:48:26;;;;;;;10.02;5.10;;;;;;;;;;4296296;33;20066;-79
2023/06/20 09:50:54;;;;;;;8.35;4.37;;;;;;;;;;4309172;33;20115;-79
2023/06/20 09:53:27;;;;;;;16.65;4.53;;;;;;;;;;4323040;33;20453;-75
2023/06/20 09:55:54;;;;;;;9.40;5.87;;;;;;;;;;4322029;33;20413;-79
2023/06/20 09:58:21;;;;;;;4.95;4.30;;;;;;;;;;4322677;33;20036;-80
2023/06/20 10:00:49;;;;;;;5.80;4.85;;;;;;;;;;4322737;33;20057;-80
2023/06/20 10:03:15;;;;;;;8.55;4.75;;;;;;;;;;4322938;33;20032;-77
2023/06/20 10:05:43;;;;;;;5.28;4.75;;;;;;;;;;4321821;33;20044;-79
2023/06/20 10:08:10;;;;;;;6.20;5.60;;;;;;;;;;4319930;33;20709;-80
2023/06/20 10:10:36;;;;;;;12.45;4.68;;;;;;;;;;4319184;33;20074;-80
2023/06/20 10:13:03;;;;;;;7.60;4.55;;;;;;;;;;4321955;33;20057;-80
2023/06/20 10:15:29;;;;;;;10.32;5.05;;;;;;;;;;4321721;33;20127;-80
2023/06/20 10:17:55;;;;;;;6.30;5.70;;;;;;;;;;4320816;33;20049;-80
2023/06/20 10:20:29;;;;;;;5.45;4.72;;;;;;;;;;4325137;33;20029;-79
2023/06/20 10:22:58;;;;;;;5.55;5.10;;;;;;;;;;4323408;33;20045;-79
2023/06/20 10:25:25;;;;;;;5.85;5.35;;;;;;;;;;4324315;33;20056;-79
2023/06/20 10:28:18;;;;;;;7.62;6.00;;;;;;;;;;4324241;33;20033;-79
2023/06/20 10:30:50;;;;;;;6.20;5.65;;;;;;;;;;4327252;33;20052;-80
2023/06/20 10:33:24;;;;;;;10.63;5.25;;;;;;;;;;4340997;33;20058;-80
2023/06/20 10:35:56;;;;;;;6.62;5.60;;;;;;;;;;4339310;33;20073;-79
2023/06/20 10:38:22;;;;;;;5.28;4.78;;;;;;;;;;4321803;33;20108;-79
2023/06/20 10:41:04;;;;;;;7.15;5.30;;;;;;;;;;4306130;33;20075;-79
2023/06/20 10:43:44;;;;;;;10.15;5.95;;;;;;;;;;4308525;33;20049;-77
2023/06/20 10:46:11;;;;;;;5.60;5.00;;;;;;;;;;4307858;33;20096;-79
2023/06/20 10:48:37;;;;;;;11.38;5.97;;;;;;;;;;4308283;33;20046;-79
2023/06/20 10:51:04;;;;;;;5.47;5.05;;;;;;;;;;4307277;33;20057;-78
2023/06/20 10:53:30;;;;;;;6.62;5.60;;;;;;;;;;4305402;33;20134;-78
2023/06/20 10:55:57;;;;;;;6.18;5.60;;;;;;;;;;4289875;33;20053;-79
2023/06/20 10:58:23;;;;;;;8.02;5.60;;;;;;;;;;4293780;33;20053;-79
2023/06/20 11:00:53;;;;;;;9.68;5.07;;;;;;;;;;4448082;27;20083;-78
2023/06/20 11:03:22;;;;;;;6.00;5.35;;;;;;;;;;4311060;33;20028;-78
2023/06/20 11:05:50;;;;;;;11.85;5.82;;;;;;;;;;4322905;33;20056;-79
2023/06/20 11:08:22;;;;;;;7.05;5.97;;;;;;;;;;4321827;32;20106;-78
2023/06/20 11:10:48;;;;;;;12.88;7.05;;;;;;;;;;4350495;32;20044;-80
2023/06/20 11:13:15;;;;;;;8.38;5.10;;;;;;;;;;4339773;33;20046;-78
2023/06/20 11:15:43;;;;;;;5.43;4.87;;;;;;;;;;4339547;33;20078;-78
2023/06/20 11:18:09;;;;;;;9.25;5.20;;;;;;;;;;4338945;33;20080;-78
2023/06/20 11:20:39;;;;;;;10.95;5.95;;;;;;;;;;4337739;33;20148;-78
2023/06/20 11:23:10;;;;;;;6.72;5.53;;;;;;;;;;4340108;33;20047;-78
2023/06/20 11:25:37;;;;;;;10.73;6.05;;;;;;;;;;4321738;33;20592;-79
2023/06/20 11:28:04;;;;;;;14.95;6.82;;;;;;;;;;4306067;33;20072;-78
2023/06/20 11:30:31;;;;;;;15.45;6.07;;;;;;;;;;4305959;33;20052;-78
2023/06/20 11:33:15;;;;;;;9.38;5.85;;;;;;;;;;4306468;33;20094;-79
2023/06/20 11:35:42;;;;;;;10.77;5.37;;;;;;;;;;4304335;33;20094;-79
2023/06/20 11:38:09;;;;;;;7.82;5.40;;;;;;;;;;4306782;33;20091;-80
2023/06/20 11:40:36;;;;;;;7.78;4.68;;;;;;;;;;4306933;33;20394;-78
2023/06/20 11:43:02;;;;;;;5.82;4.95;;;;;;;;;;4307364;33;20062;-79
2023/06/20 11:45:28;;;;;;;6.25;5.68;;;;;;;;;;4305723;33;20124;-78
2023/06/20 11:48:13;;;;;;;6.55;5.43;;;;;;;;;;4307325;33;20068;-78
2023/06/20 11:50:41;;;;;;;7.25;4.97;;;;;;;;;;4293249;33;20439;-79
2023/06/20 11:53:16;;;;;;;8.07;5.50;;;;;;;;;;4294534;33;20082;-78
2023/06/20 11:55:43;;;;;;;7.00;6.40;;;;;;;;;;4296266;33;20041;-76
2023/06/20 11:58:09;;;;;;;11.30;5.60;;;;;;;;;;4310489;33;20160;-76
2023/06/20 12:00:35;;;;;;;15.23;5.30;;;;;;;;;;4309449;33;20079;-77
2023/06/20 12:03:02;;;;;;;6.43;5.45;;;;;;;;;;4307091;33;20098;-77
2023/06/20 12:05:31;;;;;;;6.30;5.03;;;;;;;;;;4307536;33;20566;-78
2023/06/20 12:07:57;;;;;;;5.95;5.37;;;;;;;;;;4317556;33;20053;-77
2023/06/20 12:10:28;;;;;;;5.40;5.00;;;;;;;;;;4336089;33;20052;-77
2023/06/20 12:12:54;;;;;;;6.35;5.07;;;;;;;;;;4339475;33;20073;-78
2023/06/20 12:15:20;;;;;;;5.82;5.25;;;;;;;;;;4340706;33;20089;-78
2023/06/20 12:17:46;;;;;;;8.80;5.20;;;;;;;;;;4328043;33;20052;-77
2023/06/20 12:20:13;;;;;;;6.90;5.28;;;;;;;;;;4330241;33;20492;-78
2023/06/20 12:22:39;;;;;;;12.60;5.43;;;;;;;;;;4334583;33;20199;-78
2023/06/20 12:25:06;;;;;;;7.05;5.72;;;;;;;;;;4339291;33;20056;-78
2023/06/20 12:27:32;;;;;;;5.15;4.82;;;;;;;;;;4339347;33;20069;-78
2023/06/20 12:29:58;;;;;;;5.47;5.03;;;;;;;;;;4321228;33;20139;-78
2023/06/20 12:32:25;;;;;;;9.88;5.53;;;;;;;;;;4308303;33;20037;-78
2023/06/20 12:34:51;;;;;;;7.35;6.60;;;;;;;;;;4317563;33;20412;-77
2023/06/20 12:37:17;;;;;;;5.05;4.65;;;;;;;;;;4318047;33;20081;-78
2023/06/20 12:39:44;;;;;;;7.12;5.22;;;;;;;;;;4315522;33;20079;-77
2023/06/20 12:42:12;;;;;;;9.95;4.90;;;;;;;;;;4303959;33;20068;-78
2023/06/20 12:44:38;;;;;;;16.77;5.87;;;;;;;;;;4284774;33;20098;-78
2023/06/20 12:47:12;;;;;;;6.05;5.43;;;;;;;;;;4251957;33;20064;-79
2023/06/20 12:49:38;;;;;;;5.68;5.18;;;;;;;;;;4242840;33;20220;-78
2023/06/20 12:52:08;;;;;;;5.95;5.43;;;;;;;;;;4254719;33;20052;-79
2023/06/20 12:54:34;;;;;;;5.70;5.30;;;;;;;;;;4252204;33;20512;-79
2023/06/20 12:57:00;;;;;;;7.43;6.50;;;;;;;;;;4251832;33;20065;-80
2023/06/20 12:59:27;;;;;;;5.62;5.22;;;;;;;;;;4252827;33;20084;-78
2023/06/20 13:01:53;;;;;;;9.75;5.50;;;;;;;;;;4251054;33;20406;-77
2023/06/20 13:04:19;;;;;;;6.03;5.30;;;;;;;;;;4263285;33;20053;-78
2023/06/20 13:06:45;;;;;;;8.25;5.10;;;;;;;;;;4266742;33;20041;-78
2023/06/20 13:09:12;;;;;;;5.87;5.15;;;;;;;;;;4280340;33;20862;-79
2023/06/20 13:11:37;;;;;;;9.43;5.80;;;;;;;;;;4280346;33;20097;-78
2023/06/20 13:14:04;;;;;;;7.20;5.57;;;;;;;;;;4263791;33;20038;-78
2023/06/20 13:16:31;;;;;;;8.85;5.10;;;;;;;;;;4266510;33;20053;-79
2023/06/20 13:18:59;;;;;;;10.68;5.97;;;;;;;;;;4265067;33;20122;-78
2023/06/20 13:21:26;;;;;;;7.32;5.37;;;;;;;;;;4266046;33;20058;-79
2023/06/20 13:23:52;;;;;;;8.10;4.82;;;;;;;;;;4267103;33;20045;-79
2023/06/20 13:26:20;;;;;;;7.05;5.57;;;;;;;;;;4251066;33;20502;-79
2023/06/20 13:28:46;;;;;;;6.03;5.22;;;;;;;;;;4251946;33;20502;-79
2023/06/20 13:31:12;;;;;;;9.48;5.30;;;;;;;;;;4250266;33;20042;-80
2023/06/20 13:33:39;;;;;;;5.37;4.97;;;;;;;;;;4252643;33;20061;-82
2023/06/20 13:36:08;;;;;;;5.93;5.25;;;;;;;;;;4263573;33;20071;-80
2023/06/20 13:38:34;;;;;;;6.70;5.97;;;;;;;;;;4266976;33;20454;-78
2023/06/20 13:41:00;;;;;;;12.90;8.60;;;;;;;;;;4277241;33;20109;-78
2023/06/20 13:43:33;;;;;;;8.07;7.07;;;;;;;;;;4279545;33;20090;-79
2023/06/20 13:45:59;;;;;;;6.47;5.70;;;;;;;;;;4305022;33;20052;-78
2023/06/20 13:48:25;;;;;;;12.57;5.82;;;;;;;;;;4309477;33;20079;-78
2023/06/20 13:50:51;;;;;;;10.05;6.05;;;;;;;;;;4309084;33;20053;-79
2023/06/20 13:53:18;;;;;;;5.28;4.87;;;;;;;;;;4309270;33;20119;-80
2023/06/20 13:55:45;;;;;;;6.40;5.80;;;;;;;;;;4308314;33;20044;-80
2023/06/20 13:58:12;;;;;;;6.30;5.35;;;;;;;;;;4280194;33;20046;-79
2023/06/20 14:00:44;;;;;;;10.27;5.57;;;;;;;;;;4278936;33;20564;-80
2023/06/20 14:03:12;;;;;;;7.80;5.25;;;;;;;;;;4289956;33;20070;-80
2023/06/20 14:05:38;;;;;;;5.80;5.30;;;;;;;;;;4321363;33;20431;-80
2023/06/20 14:08:04;;;;;;;6.60;4.68;;;;;;;;;;4293219;33;20056;-80
2023/06/20 14:10:30;;;;;;;6.82;5.43;;;;;;;;;;4294945;33;20540;-80
2023/06/20 14:12:57;;;;;;;6.28;5.20;;;;;;;;;;4293151;33;20088;-79
2023/06/20 14:15:23;;;;;;;7.72;4.75;;;;;;;;;;4279587;33;20489;-79
2023/06/20 14:17:51;;;;;;;10.70;5.32;;;;;;;;;;4279112;33;20037;-80
2023/06/20 14:20:17;;;;;;;6.25;5.65;;;;;;;;;;4279848;33;20103;-79
2023/06/20 14:22:43;;;;;;;6.15;5.53;;;;;;;;;;4279553;33;20124;-80
2023/06/20 14:25:09;;;;;;;7.78;5.78;;;;;;;;;;4250411;33;20037;-79
2023/06/20 14:27:36;;;;;;;7.28;5.30;;;;;;;;;;4250058;33;20158;-79
2023/06/20 14:30:02;;;;;;;11.48;5.00;;;;;;;;;;4259577;33;20054;-80
2023/06/20 14:32:28;;;;;;;6.37;5.60;;;;;;;;;;4248798;33;20557;-81
2023/06/20 14:34:54;;;;;;;6.55;5.12;;;;;;;;;;4263446;33;20049;-80
2023/06/20 14:37:20;;;;;;;5.43;4.95;;;;;;;;;;4264998;33;20120;-80
2023/06/20 14:39:47;;;;;;;6.93;5.50;;;;;;;;;;4287428;33;20041;-78
2023/06/20 14:42:13;;;;;;;7.18;4.90;;;;;;;;;;4292246;33;20079;-79
2023/06/20 14:44:40;;;;;;;5.65;5.10;;;;;;;;;;4294381;33;20462;-79
2023/06/20 14:47:07;;;;;;;8.55;5.60;;;;;;;;;;4304336;33;20090;-79
2023/06/20 14:49:33;;;;;;;9.68;5.87;;;;;;;;;;4307351;33;20033;-80
2023/06/20 14:52:00;;;;;;;7.57;5.55;;;;;;;;;;4306335;33;20192;-80
2023/06/20 14:54:27;;;;;;;9.13;6.57;;;;;;;;;;4305704;33;20033;-80
2023/06/20 14:56:53;;;;;;;5.57;5.07;;;;;;;;;;4330461;33;20436;-80
2023/06/20 14:59:19;;;;;;;8.45;5.43;;;;;;;;;;4336050;33;20107;-80
2023/06/20 15:01:46;;;;;;;9.40;5.68;;;;;;;;;;4336333;33;20047;-80
2023/06/20 15:04:13;;;;;;;6.50;5.82;;;;;;;;;;4337122;33;20119;-80
2023/06/20 15:06:40;;;;;;;7.47;5.20;;;;;;;;;;4325738;33;20060;-80
2023/06/20 15:09:06;;;;;;;5.28;4.87;;;;;;;;;;4315400;33;20040;-80
2023/06/20 15:11:32;;;;;;;7.68;6.10;;;;;;;;;;4311229;33;20052;-80
2023/06/20 15:13:58;;;;;;;15.90;5.72;;;;;;;;;;4303861;33;20115;-80
2023/06/20 15:16:24;;;;;;;9.27;5.95;;;;;;;;;;4293216;33;20423;-79
2023/06/20 15:18:51;;;;;;;5.72;5.22;;;;;;;;;;4284406;33;20056;-80
2023/06/20 15:21:17;;;;;;;7.82;5.15;;;;;;;;;;4292766;33;20159;-80
2023/06/20 15:23:43;;;;;;;8.02;4.85;;;;;;;;;;4293208;33;20045;-79
2023/06/20 15:26:09;;;;;;;6.95;5.50;;;;;;;;;;4293476;33;20069;-79
2023/06/20 15:28:35;;;;;;;7.95;5.90;;;;;;;;;;4291651;33;20040;-79
2023/06/20 15:31:05;;;;;;;9.80;5.50;;;;;;;;;;4283508;33;20112;-78
2023/06/20 15:33:32;;;;;;;6.25;5.20;;;;;;;;;;4279236;33;20044;-80
2023/06/20 15:36:01;;;;;;;6.15;5.45;;;;;;;;;;4278678;33;20097;-78
2023/06/20 15:38:29;;;;;;;;;;;;;;;;;;4308219;33;20223;-79
2023/06/20 15:40:56;;;;;;;11.12;5.82;;;;;;;;;;4333038;33;20009;-79
2023/06/20 15:43:22;;;;;;;5.70;5.20;;;;;;;;;;4323417;33;20480;-77
2023/06/20 15:45:50;;;;;;;7.35;6.00;;;;;;;;;;4332119;33;20067;-76
2023/06/20 15:48:21;;;;;;;7.20;6.22;;;;;;;;;;4333190;33;20070;-82
2023/06/20 15:50:48;;;;;;;5.78;5.28;;;;;;;;;;4335279;33;20124;-79
2023/06/20 15:53:24;;;;;;;5.68;5.18;;;;;;;;;;4336162;33;20061;-77
2023/06/20 15:55:53;;;;;;;6.55;5.50;;;;;;;;;;4329536;33;20047;-79
2023/06/20 15:58:19;;;;;;;6.85;5.28;;;;;;;;;;4329514;33;20479;-80
2023/06/20 16:00:48;;;;;;;5.72;5.20;;;;;;;;;;4335137;33;21061;-79
2023/06/20 16:03:14;;;;;;;6.60;5.68;;;;;;;;;;4327243;33;20498;-78
2023/06/20 16:05:47;;;;;;;5.87;5.37;;;;;;;;;;4325518;33;20066;-77
2023/06/20 16:08:14;;;;;;;7.60;5.00;;;;;;;;;;4326565;33;20448;-80
2023/06/20 16:10:40;;;;;;;16.10;5.18;;;;;;;;;;4326205;33;20052;-78
2023/06/20 16:13:07;;;;;;;10.70;5.07;;;;;;;;;;4316018;33;20044;-79
2023/06/20 16:15:33;;;;;;;5.57;5.18;;;;;;;;;;4324586;33;20074;-79
2023/06/20 16:18:00;;;;;;;19.80;7.03;;;;;;;;;;4324260;33;20070;-80
2023/06/20 16:20:27;;;;;;;6.82;5.82;;;;;;;;;;4322270;33;20049;-79
2023/06/20 16:22:53;;;;;;;10.68;5.20;;;;;;;;;;4323347;33;20074;-78
2023/06/20 16:25:20;;;;;;;6.53;5.78;;;;;;;;;;4320477;33;20062;-77
2023/06/20 16:27:46;;;;;;;12.98;5.40;;;;;;;;;;4323126;33;20052;-84
2023/06/20 16:30:14;;;;;;;12.57;6.30;;;;;;;;;;4323708;33;20066;-79
2023/06/20 16:32:40;;;;;;;11.73;5.07;;;;;;;;;;4314972;33;20037;-78
2023/06/20 16:35:10;;;;;;;9.63;5.65;;;;;;;;;;4320869;33;20067;-80
2023/06/20 16:37:39;;;;;;;9.05;5.25;;;;;;;;;;4319546;33;20481;-80
2023/06/20 16:40:08;;;;;;;9.73;5.60;;;;;;;;;;4319579;33;20078;-80